Bond, Oklahoma
Current Conditions -  °F | °C
As of 6:53 AM on Tuesday 21 Oct 2014 (Local Time) from KMKO Reporting Station
Haze Haze  
Wind Chill: 57°   Ceiling: 4300
Heat Index: 57°   Visibility: 2mi
Dew Point: 56°   Wind: 3mph
Humidity: 96%   Direction: 110°ESE
Pressure: 30.1"   Gusts: NA
Location:  35.4498°N, 95.4869°W
Report Text: KMKO 211153Z AUTO 11003KT 2SM BR BKN043 BKN060 14/13 A3010 RMK AO2 SLP188 70001 T01390133 10161 20133 53008
Loading
Personal Weather Stations






























Interactive Weather Map
Tropical Storm Tracking
New forecast layout! Learn more

10-Day Weather Forecast

Advertisements
Track Severe Weather on mobile